sensor_id;sensor_type;location;lat;lon;timestamp;P1;durP1;ratioP1;P2;durP2;ratioP2
57718;SDS011;43561;50.090;18.522;2023-06-22T00:02:39;14.02;;;6.07;;
57718;SDS011;43561;50.090;18.522;2023-06-22T00:12:41;6.85;;;5.65;;
57718;SDS011;43561;50.090;18.522;2023-06-22T00:22:43;10.32;;;7.45;;
57718;SDS011;43561;50.090;18.522;2023-06-22T00:32:45;13.27;;;5.88;;
57718;SDS011;43561;50.090;18.522;2023-06-22T00:42:48;18.38;;;8.00;;
57718;SDS011;43561;50.090;18.522;2023-06-22T00:52:54;18.05;;;8.13;;
57718;SDS011;43561;50.090;18.522;2023-06-22T01:02:58;9.23;;;5.97;;
57718;SDS011;43561;50.090;18.522;2023-06-22T01:13:04;8.85;;;6.22;;
57718;SDS011;43561;50.090;18.522;2023-06-22T01:23:17;10.88;;;5.13;;
57718;SDS011;43561;50.090;18.522;2023-06-22T01:33:30;13.15;;;7.13;;
57718;SDS011;43561;50.090;18.522;2023-06-22T01:43:38;14.20;;;6.00;;
57718;SDS011;43561;50.090;18.522;2023-06-22T01:53:41;9.23;;;6.25;;
57718;SDS011;43561;50.090;18.522;2023-06-22T02:03:44;15.50;;;6.80;;
57718;SDS011;43561;50.090;18.522;2023-06-22T02:13:55;12.15;;;6.60;;
57718;SDS011;43561;50.090;18.522;2023-06-22T02:23:59;18.00;;;9.60;;
57718;SDS011;43561;50.090;18.522;2023-06-22T02:34:04;12.70;;;6.30;;
57718;SDS011;43561;50.090;18.522;2023-06-22T02:44:06;11.05;;;6.88;;
57718;SDS011;43561;50.090;18.522;2023-06-22T02:54:08;13.48;;;7.82;;
57718;SDS011;43561;50.090;18.522;2023-06-22T03:04:10;16.77;;;8.68;;
57718;SDS011;43561;50.090;18.522;2023-06-22T03:14:12;26.38;;;7.75;;
57718;SDS011;43561;50.090;18.522;2023-06-22T03:24:14;16.70;;;7.20;;
57718;SDS011;43561;50.090;18.522;2023-06-22T03:34:16;11.65;;;8.55;;
57718;SDS011;43561;50.090;18.522;2023-06-22T03:44:18;21.15;;;11.30;;
57718;SDS011;43561;50.090;18.522;2023-06-22T03:54:21;21.40;;;10.10;;
57718;SDS011;43561;50.090;18.522;2023-06-22T04:04:22;22.77;;;11.63;;
57718;SDS011;43561;50.090;18.522;2023-06-22T04:14:25;25.63;;;13.63;;
57718;SDS011;43561;50.090;18.522;2023-06-22T04:24:27;22.55;;;13.20;;
57718;SDS011;43561;50.090;18.522;2023-06-22T04:34:29;24.48;;;16.17;;
57718;SDS011;43561;50.090;18.522;2023-06-22T04:44:31;30.48;;;17.38;;
57718;SDS011;43561;50.090;18.522;2023-06-22T04:54:34;21.63;;;17.20;;
57718;SDS011;43561;50.090;18.522;2023-06-22T05:04:37;29.48;;;17.60;;
57718;SDS011;43561;50.090;18.522;2023-06-22T05:14:39;30.23;;;19.85;;
57718;SDS011;43561;50.090;18.522;2023-06-22T05:24:41;26.60;;;19.65;;
57718;SDS011;43561;50.090;18.522;2023-06-22T05:34:44;39.08;;;24.70;;
57718;SDS011;43561;50.090;18.522;2023-06-22T05:44:46;46.30;;;21.10;;
57718;SDS011;43561;50.090;18.522;2023-06-22T05:54:48;35.22;;;22.17;;
57718;SDS011;43561;50.090;18.522;2023-06-22T06:04:50;42.25;;;23.48;;
57718;SDS011;43561;50.090;18.522;2023-06-22T06:14:52;33.92;;;22.27;;
57718;SDS011;43561;50.090;18.522;2023-06-22T06:24:54;35.30;;;21.48;;
57718;SDS011;43561;50.090;18.522;2023-06-22T06:34:59;25.40;;;20.95;;
57718;SDS011;43561;50.090;18.522;2023-06-22T06:45:05;33.58;;;23.08;;
57718;SDS011;43561;50.090;18.522;2023-06-22T06:55:10;30.73;;;18.42;;
57718;SDS011;43561;50.090;18.522;2023-06-22T07:05:12;27.98;;;19.77;;
57718;SDS011;43561;50.090;18.522;2023-06-22T07:15:14;25.85;;;19.75;;
57718;SDS011;43561;50.090;18.522;2023-06-22T07:25:16;25.48;;;18.75;;
57718;SDS011;43561;50.090;18.522;2023-06-22T07:35:19;22.95;;;19.50;;
57718;SDS011;43561;50.090;18.522;2023-06-22T07:45:21;27.00;;;19.13;;
57718;SDS011;43561;50.090;18.522;2023-06-22T07:55:22;16.92;;;13.50;;
57718;SDS011;43561;50.090;18.522;2023-06-22T08:05:25;25.20;;;15.65;;
57718;SDS011;43561;50.090;18.522;2023-06-22T08:15:27;19.73;;;14.85;;
57718;SDS011;43561;50.090;18.522;2023-06-22T08:25:29;23.67;;;17.08;;
57718;SDS011;43561;50.090;18.522;2023-06-22T08:35:31;21.42;;;16.38;;
57718;SDS011;43561;50.090;18.522;2023-06-22T08:45:34;26.02;;;17.05;;
57718;SDS011;43561;50.090;18.522;2023-06-22T08:55:39;20.65;;;15.57;;
57718;SDS011;43561;50.090;18.522;2023-06-22T09:05:41;21.40;;;18.25;;
57718;SDS011;43561;50.090;18.522;2023-06-22T09:15:43;24.05;;;17.55;;
57718;SDS011;43561;50.090;18.522;2023-06-22T09:25:45;24.33;;;18.15;;
57718;SDS011;43561;50.090;18.522;2023-06-22T09:35:47;18.95;;;15.68;;
57718;SDS011;43561;50.090;18.522;2023-06-22T09:45:55;19.58;;;13.02;;
57718;SDS011;43561;50.090;18.522;2023-06-22T09:55:57;15.48;;;13.88;;
57718;SDS011;43561;50.090;18.522;2023-06-22T10:05:59;16.98;;;15.18;;
57718;SDS011;43561;50.090;18.522;2023-06-22T10:16:01;27.33;;;18.05;;
57718;SDS011;43561;50.090;18.522;2023-06-22T10:26:03;17.30;;;12.90;;
57718;SDS011;43561;50.090;18.522;2023-06-22T10:36:05;14.40;;;11.45;;
57718;SDS011;43561;50.090;18.522;2023-06-22T10:46:07;16.25;;;11.45;;
57718;SDS011;43561;50.090;18.522;2023-06-22T10:56:09;16.08;;;11.20;;
57718;SDS011;43561;50.090;18.522;2023-06-22T11:06:11;17.08;;;10.73;;
57718;SDS011;43561;50.090;18.522;2023-06-22T11:16:13;14.75;;;11.25;;
57718;SDS011;43561;50.090;18.522;2023-06-22T11:26:15;15.25;;;9.63;;
57718;SDS011;43561;50.090;18.522;2023-06-22T11:36:17;13.50;;;9.82;;
57718;SDS011;43561;50.090;18.522;2023-06-22T11:46:19;14.30;;;10.50;;
57718;SDS011;43561;50.090;18.522;2023-06-22T11:56:21;9.63;;;8.63;;
57718;SDS011;43561;50.090;18.522;2023-06-22T12:06:23;10.10;;;9.05;;
57718;SDS011;43561;50.090;18.522;2023-06-22T12:16:25;15.20;;;11.95;;
57718;SDS011;43561;50.090;18.522;2023-06-22T12:26:27;13.27;;;8.45;;
57718;SDS011;43561;50.090;18.522;2023-06-22T12:36:28;12.30;;;9.65;;
57718;SDS011;43561;50.090;18.522;2023-06-22T12:46:30;22.67;;;10.35;;
57718;SDS011;43561;50.090;18.522;2023-06-22T12:56:32;11.93;;;9.60;;
57718;SDS011;43561;50.090;18.522;2023-06-22T13:06:36;11.43;;;10.32;;
57718;SDS011;43561;50.090;18.522;2023-06-22T13:16:38;14.02;;;9.75;;
57718;SDS011;43561;50.090;18.522;2023-06-22T13:26:39;10.32;;;8.45;;
57718;SDS011;43561;50.090;18.522;2023-06-22T13:36:42;10.75;;;9.15;;
57718;SDS011;43561;50.090;18.522;2023-06-22T13:46:43;13.35;;;10.02;;
57718;SDS011;43561;50.090;18.522;2023-06-22T13:56:46;10.65;;;9.63;;
57718;SDS011;43561;50.090;18.522;2023-06-22T14:06:48;11.63;;;9.10;;
57718;SDS011;43561;50.090;18.522;2023-06-22T14:16:50;11.25;;;9.05;;
57718;SDS011;43561;50.090;18.522;2023-06-22T14:26:52;11.65;;;10.02;;
57718;SDS011;43561;50.090;18.522;2023-06-22T14:36:53;12.05;;;8.75;;
57718;SDS011;43561;50.090;18.522;2023-06-22T14:46:56;10.52;;;9.50;;
57718;SDS011;43561;50.090;18.522;2023-06-22T14:56:58;13.43;;;10.20;;
57718;SDS011;43561;50.090;18.522;2023-06-22T15:07:00;21.45;;;14.23;;
57718;SDS011;43561;50.090;18.522;2023-06-22T15:17:02;13.50;;;10.70;;
57718;SDS011;43561;50.090;18.522;2023-06-22T15:27:04;12.32;;;8.40;;
57718;SDS011;43561;50.090;18.522;2023-06-22T15:37:07;15.45;;;11.35;;
57718;SDS011;43561;50.090;18.522;2023-06-22T15:47:09;12.20;;;9.93;;
57718;SDS011;43561;50.090;18.522;2023-06-22T15:57:11;16.05;;;11.10;;
57718;SDS011;43561;50.090;18.522;2023-06-22T16:07:13;12.85;;;9.57;;
57718;SDS011;43561;50.090;18.522;2023-06-22T16:17:15;24.15;;;17.20;;
57718;SDS011;43561;50.090;18.522;2023-06-22T16:27:17;8.95;;;8.02;;
57718;SDS011;43561;50.090;18.522;2023-06-22T16:37:20;13.15;;;10.05;;
57718;SDS011;43561;50.090;18.522;2023-06-22T16:47:22;15.38;;;12.13;;
57718;SDS011;43561;50.090;18.522;2023-06-22T16:57:24;11.68;;;8.48;;
57718;SDS011;43561;50.090;18.522;2023-06-22T17:07:27;11.52;;;9.00;;
57718;SDS011;43561;50.090;18.522;2023-06-22T17:17:30;9.85;;;7.88;;
57718;SDS011;43561;50.090;18.522;2023-06-22T17:27:35;13.02;;;9.77;;
57718;SDS011;43561;50.090;18.522;2023-06-22T17:37:47;13.35;;;10.85;;
57718;SDS011;43561;50.090;18.522;2023-06-22T17:47:53;14.60;;;12.90;;
57718;SDS011;43561;50.090;18.522;2023-06-22T17:57:56;11.15;;;8.77;;
57718;SDS011;43561;50.090;18.522;2023-06-22T18:07:59;9.77;;;7.38;;
57718;SDS011;43561;50.090;18.522;2023-06-22T18:18:03;12.68;;;9.20;;
57718;SDS011;43561;50.090;18.522;2023-06-22T18:28:06;11.18;;;8.75;;
57718;SDS011;43561;50.090;18.522;2023-06-22T18:38:09;15.73;;;9.27;;
57718;SDS011;43561;50.090;18.522;2023-06-22T18:48:12;12.52;;;8.65;;
57718;SDS011;43561;50.090;18.522;2023-06-22T18:58:15;11.63;;;9.00;;
57718;SDS011;43561;50.090;18.522;2023-06-22T19:08:21;12.38;;;8.57;;
57718;SDS011;43561;50.090;18.522;2023-06-22T19:18:31;15.70;;;9.32;;
57718;SDS011;43561;50.090;18.522;2023-06-22T19:28:43;15.85;;;11.15;;
57718;SDS011;43561;50.090;18.522;2023-06-22T19:38:50;16.13;;;9.80;;
57718;SDS011;43561;50.090;18.522;2023-06-22T19:48:53;18.08;;;10.55;;
57718;SDS011;43561;50.090;18.522;2023-06-22T19:58:55;17.25;;;12.68;;
57718;SDS011;43561;50.090;18.522;2023-06-22T20:08:57;15.15;;;11.20;;
57718;SDS011;43561;50.090;18.522;2023-06-22T20:19:12;19.55;;;13.57;;
57718;SDS011;43561;50.090;18.522;2023-06-22T20:29:33;20.73;;;13.95;;
57718;SDS011;43561;50.090;18.522;2023-06-22T20:39:39;16.05;;;12.60;;
57718;SDS011;43561;50.090;18.522;2023-06-22T20:49:41;17.58;;;14.15;;
57718;SDS011;43561;50.090;18.522;2023-06-22T20:59:43;24.52;;;14.95;;
57718;SDS011;43561;50.090;18.522;2023-06-22T21:09:46;15.43;;;12.40;;
57718;SDS011;43561;50.090;18.522;2023-06-22T21:19:52;16.40;;;13.10;;
57718;SDS011;43561;50.090;18.522;2023-06-22T21:29:54;16.42;;;12.45;;
57718;SDS011;43561;50.090;18.522;2023-06-22T21:39:58;13.77;;;11.57;;
57718;SDS011;43561;50.090;18.522;2023-06-22T21:50:00;21.02;;;13.68;;
57718;SDS011;43561;50.090;18.522;2023-06-22T22:00:02;15.88;;;12.50;;
57718;SDS011;43561;50.090;18.522;2023-06-22T22:10:08;17.08;;;10.40;;
57718;SDS011;43561;50.090;18.522;2023-06-22T22:20:11;14.07;;;11.27;;
57718;SDS011;43561;50.090;18.522;2023-06-22T22:30:13;22.50;;;12.05;;
57718;SDS011;43561;50.090;18.522;2023-06-22T22:40:15;16.88;;;11.80;;
57718;SDS011;43561;50.090;18.522;2023-06-22T22:50:17;17.20;;;11.27;;
57718;SDS011;43561;50.090;18.522;2023-06-22T23:00:19;17.42;;;11.35;;
57718;SDS011;43561;50.090;18.522;2023-06-22T23:10:21;14.50;;;11.27;;
57718;SDS011;43561;50.090;18.522;2023-06-22T23:20:23;18.92;;;12.55;;
57718;SDS011;43561;50.090;18.522;2023-06-22T23:30:25;15.23;;;11.20;;
57718;SDS011;43561;50.090;18.522;2023-06-22T23:40:27;16.23;;;14.38;;
57718;SDS011;43561;50.090;18.522;2023-06-22T23:50:29;16.67;;;14.35;;
